Time;durP1;ratioP1;P1;durP2;ratioP2;P2;SDS_P1;SDS_P2;PMS_P1;PMS_P2;Temp;Humidity;BMP_temperature;BMP_pressure;BME280_temperature;BME280_humidity;BME280_pressure;Samples;Min_cycle;Max_cycle;Signal;HPM_P1;HPM_P2
2021/03/28 00:02:32;;;;;;;6.10;2.37;;;9.00;61.50;;;8.82;67.04;99396.59;5026570;28;20696;-73
2021/03/28 00:05:15;;;;;;;4.97;2.33;;;9.00;61.80;;;8.85;65.92;99398.22;5023127;28;20616;-73
2021/03/28 00:07:46;;;;;;;5.70;2.27;;;9.00;62.00;;;8.86;65.59;99402.53;5026201;28;20649;-73
2021/03/28 00:10:30;;;;;;;8.77;2.53;;;9.10;61.60;;;8.90;66.59;99398.88;5029392;28;20998;-73
2021/03/28 00:13:08;;;;;;;3.77;2.20;;;9.10;61.40;;;8.91;66.35;99397.97;5042243;28;21170;-73
2021/03/28 00:15:43;;;;;;;4.43;2.50;;;9.10;62.00;;;8.86;65.79;99398.16;5034341;28;20657;-73
2021/03/28 00:18:22;;;;;;;6.57;2.90;;;9.10;62.00;;;8.84;67.44;99407.81;5029280;28;20690;-73
2021/03/28 00:21:05;;;;;;;12.20;2.93;;;9.10;62.20;;;8.83;67.30;99394.84;5029304;28;21173;-73
2021/03/28 00:23:33;;;;;;;7.50;2.80;;;9.10;62.50;;;8.87;66.30;99399.00;5032636;28;20640;-73
2021/03/28 00:26:18;;;;;;;7.17;2.50;;;9.10;63.00;;;8.89;67.08;99402.41;5029913;28;20646;-73
2021/03/28 00:28:49;;;;;;;7.33;2.30;;;9.10;62.00;;;8.92;66.38;99396.16;5024140;28;20726;-73
2021/03/28 00:31:24;;;;;;;7.10;2.67;;;9.10;62.00;;;8.95;67.08;99398.63;5027837;28;20644;-73
2021/03/28 00:34:12;;;;;;;4.90;2.67;;;9.20;62.00;;;8.92;66.40;99390.94;5028169;28;21073;-73
2021/03/28 00:36:46;;;;;;;4.90;3.30;;;9.10;62.10;;;8.83;68.18;99395.69;5027373;28;20657;-73
2021/03/28 00:39:33;;;;;;;7.43;4.90;;;9.00;63.20;;;8.75;68.83;99399.50;5031610;28;20695;-73
2021/03/28 00:42:07;;;;;;;5.37;3.03;;;9.00;64.30;;;8.66;70.08;99392.94;5027006;28;20632;-73
2021/03/28 00:44:46;;;;;;;5.43;3.33;;;8.90;65.10;;;8.55;69.09;99396.84;5026974;28;20644;-73
2021/03/28 00:47:22;;;;;;;6.80;3.00;;;8.80;65.70;;;8.48;68.58;99403.22;5025610;28;20641;-73
2021/03/28 00:50:07;;;;;;;6.97;3.20;;;8.80;65.60;;;8.40;69.63;99404.41;5038369;28;20652;-73
2021/03/28 00:52:40;;;;;;;6.50;3.53;;;8.70;65.80;;;8.40;70.45;99402.66;5027907;28;20633;-73
2021/03/28 00:55:21;;;;;;;6.60;3.00;;;8.70;66.10;;;8.32;69.87;99407.31;5026804;28;20641;-73
2021/03/28 00:58:14;;;;;;;9.87;3.13;;;8.60;65.80;;;8.23;68.71;99399.00;5058994;28;20637;-73
2021/03/28 01:01:28;;;;;;;8.70;3.87;;;8.50;65.50;;;8.15;69.86;99396.72;5043702;28;21173;-73
2021/03/28 01:04:34;;;;;;;7.10;3.13;;;8.40;65.80;;;8.10;69.51;99401.22;5022301;28;20649;-73
2021/03/28 01:07:14;;;;;;;7.53;2.90;;;8.40;66.60;;;8.05;69.31;99399.66;5043910;28;20682;-73
2021/03/28 01:10:17;;;;;;;7.60;3.20;;;8.40;66.80;;;8.02;70.68;99400.63;5044407;28;20676;-73
2021/03/28 01:13:31;;;;;;;4.53;3.00;;;8.40;67.10;;;7.94;71.02;99400.97;5024508;28;20624;-73
2021/03/28 01:16:50;;;;;;;10.17;3.40;;;8.20;66.90;;;7.82;71.83;99388.44;5027330;28;20715;-73
2021/03/28 01:20:05;;;;;;;5.30;2.87;;;8.10;67.60;;;7.67;71.50;99391.59;5027803;28;20646;-73
2021/03/28 01:22:45;;;;;;;6.07;3.10;;;8.00;68.30;;;7.63;71.38;99390.00;5023193;28;20640;-73
2021/03/28 01:25:45;;;;;;;7.17;3.50;;;7.90;68.40;;;7.52;72.73;99394.75;5027397;28;20706;-73
2021/03/28 01:28:21;;;;;;;7.10;3.40;;;7.80;69.00;;;7.45;72.50;99388.06;5029046;28;20621;-73
2021/03/28 01:30:53;;;;;;;11.03;3.20;;;7.80;69.70;;;7.41;72.67;99383.88;5025641;28;21187;-73
2021/03/28 01:33:29;;;;;;;9.23;3.53;;;7.70;69.90;;;7.40;71.61;99387.38;5026660;28;20638;-73
2021/03/28 01:36:06;;;;;;;12.63;3.63;;;7.70;69.80;;;7.33;72.96;99395.44;5020919;28;20661;-73
2021/03/28 01:38:40;;;;;;;9.07;3.17;;;7.60;69.70;;;7.28;72.95;99387.81;5025544;28;20692;-73
2021/03/28 01:41:14;;;;;;;9.50;4.50;;;7.50;70.30;;;7.22;73.21;99388.03;5024660;28;21169;-73
2021/03/28 01:43:51;;;;;;;12.10;3.90;;;7.50;71.30;;;7.19;73.57;99397.66;5060821;28;20629;-73
2021/03/28 01:46:30;;;;;;;11.13;4.10;;;7.40;71.80;;;7.19;73.91;99397.66;5024145;28;20645;-73
2021/03/28 01:49:00;;;;;;;5.67;3.50;;;7.40;71.70;;;7.14;74.28;99395.22;5039638;28;20736;-73
2021/03/28 01:51:55;;;;;;;8.70;4.10;;;7.40;72.20;;;7.11;74.14;99392.75;5022346;28;20641;-73
2021/03/28 01:54:41;;;;;;;7.03;3.63;;;7.40;72.60;;;7.11;74.28;99397.06;5029971;28;20683;-73
2021/03/28 01:57:19;;;;;;;8.27;3.87;;;7.40;72.80;;;7.09;74.87;99397.09;5042238;28;21177;-73
2021/03/28 02:00:28;;;;;;;3.70;2.63;;;7.40;73.10;;;7.14;73.83;99397.81;5026868;28;20659;-73
2021/03/28 02:03:03;;;;;;;8.13;3.33;;;7.40;73.00;;;7.07;74.88;99398.06;5029836;28;20629;-73
2021/03/28 02:05:59;;;;;;;6.97;2.80;;;7.30;73.50;;;7.06;74.92;99402.41;5029569;28;20663;-73
2021/03/28 02:08:44;;;;;;;6.80;2.80;;;7.30;73.60;;;7.04;75.17;99404.22;5024117;28;20634;-73
2021/03/28 02:11:45;;;;;;;10.57;3.00;;;7.30;74.50;;;7.04;75.84;99405.97;5019155;28;20668;-73
2021/03/28 02:14:37;;;;;;;5.47;2.93;;;7.30;74.90;;;7.04;75.12;99409.38;5020521;28;20623;-73
2021/03/28 02:17:24;;;;;;;6.17;2.87;;;7.30;75.00;;;7.02;75.20;99405.13;5022714;28;20639;-73
2021/03/28 02:20:16;;;;;;;8.23;2.80;;;7.30;75.00;;;7.01;75.72;99397.44;5021326;28;20648;-73
2021/03/28 02:22:49;;;;;;;5.00;3.07;;;7.30;75.80;;;7.00;76.68;99406.13;5029643;28;21023;-73
2021/03/28 02:25:21;;;;;;;6.40;3.30;;;7.30;76.40;;;6.99;76.17;99407.88;5024122;28;20644;-73
2021/03/28 02:27:54;;;;;;;9.47;3.20;;;7.30;76.90;;;7.00;75.77;99406.13;5023774;28;20626;-73
2021/03/28 02:30:30;;;;;;;7.33;3.10;;;7.30;76.00;;;6.97;76.36;99396.69;5025814;28;20640;-73
2021/03/28 02:33:15;;;;;;;7.43;3.33;;;7.30;76.40;;;6.97;76.90;99395.84;5028822;28;20683;-73
2021/03/28 02:36:05;;;;;;;8.70;3.67;;;7.20;76.80;;;6.98;76.11;99402.72;5028397;28;20669;-73
2021/03/28 02:39:12;;;;;;;4.83;2.90;;;7.30;76.90;;;6.99;75.80;99396.63;5020424;28;20639;-73
2021/03/28 02:41:54;;;;;;;4.60;3.10;;;7.20;76.20;;;6.96;75.67;99400.19;5053559;28;21015;-73
2021/03/28 02:44:35;;;;;;;7.43;3.30;;;7.20;75.80;;;6.95;76.20;99406.25;5025405;28;20630;-73
2021/03/28 02:47:20;;;;;;;6.83;3.27;;;7.20;76.90;;;6.97;76.12;99401.03;5022605;28;20632;-73
2021/03/28 02:50:28;;;;;;;7.10;3.80;;;7.20;76.90;;;6.96;76.69;99399.31;5027057;28;20677;-73
2021/03/28 02:53:10;;;;;;;8.30;3.20;;;7.20;77.00;;;6.97;76.14;99395.84;5022384;28;20671;-73
2021/03/28 02:56:28;;;;;;;7.17;3.30;;;7.20;77.30;;;6.97;77.08;99395.84;5024847;28;20692;-73
2021/03/28 02:59:22;;;;;;;7.20;3.13;;;7.20;77.70;;;6.99;77.37;99399.22;5028274;28;20676;-73
2021/03/28 03:02:28;;;;;;;6.70;3.50;;;7.20;78.10;;;7.03;77.36;99402.50;5017553;28;20675;-73
2021/03/28 03:05:11;;;;;;;5.40;3.20;;;7.30;78.40;;;7.03;76.96;99407.69;5020208;28;20671;-73
2021/03/28 03:08:00;;;;;;;8.23;3.03;;;7.30;78.50;;;7.04;78.30;99409.38;5022118;28;20672;-73
2021/03/28 03:10:55;;;;;;;7.17;3.33;;;7.30;79.40;;;7.07;77.08;99403.28;5025003;28;20644;-73
2021/03/28 03:13:56;;;;;;;5.80;3.10;;;7.30;79.20;;;7.08;76.91;99413.59;5025813;28;20688;-73
2021/03/28 03:16:31;;;;;;;6.70;3.47;;;7.30;78.30;;;7.12;76.08;99401.34;5012527;28;21297;-73
2021/03/28 03:19:44;;;;;;;6.77;3.50;;;7.30;77.90;;;7.10;76.92;99398.81;5026560;28;21113;-73
2021/03/28 03:23:05;;;;;;;5.30;2.70;;;7.30;78.90;;;7.09;78.25;99404.06;5025494;28;20651;-73
2021/03/28 03:26:15;;;;;;;5.85;3.65;;;7.30;79.70;;;7.13;78.13;99409.09;5023510;28;20753;-73
2021/03/28 03:29:28;;;;;;;5.13;3.00;;;7.40;80.10;;;7.16;76.77;99403.78;5025482;28;20195;-73
2021/03/28 03:32:29;;;;;;;4.30;2.60;;;7.40;78.90;;;7.19;78.07;99406.28;5020719;28;20648;-73
2021/03/28 03:35:15;;;;;;;6.10;3.07;;;7.40;80.10;;;7.24;76.95;99403.53;5028500;28;20676;-73
2021/03/28 03:38:20;;;;;;;5.73;3.10;;;7.50;79.50;;;7.23;77.05;99407.88;5031284;28;20640;-73
2021/03/28 03:41:30;;;;;;;7.17;3.40;;;7.50;78.70;;;7.26;76.42;99419.88;5026644;28;20684;-73
2021/03/28 03:44:18;;;;;;;7.97;3.07;;;7.50;78.60;;;7.25;76.56;99413.88;5028226;28;20637;-73
2021/03/28 03:47:16;;;;;;;7.20;3.53;;;7.50;78.60;;;7.24;76.68;99417.34;5026402;28;20636;-73
2021/03/28 03:50:18;;;;;;;5.33;3.33;;;7.50;78.80;;;7.25;77.08;99420.81;5030887;28;20638;-73
2021/03/28 03:53:02;;;;;;;7.10;3.53;;;7.50;79.90;;;7.23;77.35;99422.59;5014525;28;20710;-73
2021/03/28 03:55:41;;;;;;;7.83;3.50;;;7.50;78.90;;;7.21;77.36;99433.00;5026273;28;20704;-73
2021/03/28 03:58:36;;;;;;;7.37;3.47;;;7.50;79.40;;;7.23;77.88;99420.00;5029143;28;20645;-73
2021/03/28 04:01:22;;;;;;;7.83;3.50;;;7.50;79.60;;;7.26;76.98;99431.13;5017483;28;20662;-73
2021/03/28 04:04:05;;;;;;;7.40;3.87;;;7.50;79.20;;;7.24;76.22;99432.91;5026692;28;20644;-73
2021/03/28 04:07:11;;;;;;;7.27;3.20;;;7.50;78.40;;;7.23;76.61;99428.63;5025693;28;20647;-73
2021/03/28 04:09:56;;;;;;;5.53;3.07;;;7.50;79.30;;;7.24;77.71;99432.91;5023908;28;20634;-73
2021/03/28 04:12:43;;;;;;;8.73;3.97;;;7.50;79.70;;;7.23;77.27;99431.25;5028989;28;20691;-73
2021/03/28 04:15:30;;;;;;;6.87;3.10;;;7.50;79.90;;;7.22;77.88;99428.69;5022967;28;21009;-73
2021/03/28 04:18:29;;;;;;;5.70;3.10;;;7.50;79.80;;;7.21;78.35;99421.81;5031309;28;20687;-73
2021/03/28 04:21:10;;;;;;;8.23;3.47;;;7.50;80.50;;;7.21;78.08;99432.19;5021890;28;21664;-73
2021/03/28 04:24:17;;;;;;;5.97;3.27;;;7.50;80.50;;;7.18;77.61;99438.31;5024694;28;20628;-73
2021/03/28 04:27:12;;;;;;;5.83;2.90;;;7.40;79.50;;;7.16;76.82;99437.50;5019432;28;20636;-73
2021/03/28 04:29:45;;;;;;;6.57;3.23;;;7.40;79.40;;;7.20;77.62;99435.66;5029865;28;20720;-73
2021/03/28 04:32:50;;;;;;;5.33;3.30;;;7.40;80.60;;;7.18;78.29;99437.47;5025640;28;20641;-73
2021/03/28 04:35:55;;;;;;;6.40;2.80;;;7.40;80.80;;;7.19;77.73;99428.78;5023551;28;20719;-73
2021/03/28 04:38:43;;;;;;;8.67;3.23;;;7.50;80.80;;;7.20;78.72;99433.06;5030588;28;20675;-73
2021/03/28 04:42:03;;;;;;;7.27;3.20;;;7.50;80.90;;;7.21;77.39;99425.22;5028991;28;20659;-73
2021/03/28 04:45:26;;;;;;;4.90;2.87;;;7.50;80.40;;;7.21;77.13;99430.41;5024758;28;20645;-73
2021/03/28 04:48:39;;;;;;;8.47;3.30;;;7.40;79.90;;;7.20;77.31;99431.34;5021829;28;20648;-73
2021/03/28 04:52:02;;;;;;;8.40;3.60;;;7.50;80.20;;;7.19;77.88;99432.22;5027084;28;20645;-73
2021/03/28 04:55:20;;;;;;;6.40;3.20;;;7.40;79.70;;;7.21;77.52;99434.78;5013109;28;21070;-73
2021/03/28 04:58:13;;;;;;;5.53;3.03;;;7.50;79.90;;;7.19;77.30;99432.22;5022745;28;20972;-73
2021/03/28 05:01:14;;;;;;;10.17;3.70;;;7.40;79.50;;;7.15;76.96;99434.97;5047445;28;20630;-73
2021/03/28 05:04:28;;;;;;;8.27;4.67;;;7.30;79.40;;;7.06;78.68;99438.72;5018462;28;20648;-73
2021/03/28 05:07:31;;;;;;;4.60;3.07;;;7.30;80.70;;;6.97;78.31;99447.69;5026275;28;20640;-73
2021/03/28 05:10:38;;;;;;;3.73;2.80;;;7.20;80.90;;;6.97;78.45;99458.06;5026833;28;20723;-73
2021/03/28 05:14:08;;;;;;;7.47;3.40;;;7.20;81.60;;;7.00;78.84;99452.78;5027846;28;20649;-73
2021/03/28 05:17:10;;;;;;;4.00;2.70;;;7.20;81.90;;;7.06;78.11;99450.84;5026708;28;20703;-73
2021/03/28 05:20:22;;;;;;;7.57;3.30;;;7.30;82.00;;;7.07;78.60;99453.38;5024805;28;21057;-73
2021/03/28 05:23:35;;;;;;;8.80;3.20;;;7.30;82.10;;;7.10;78.11;99453.28;5027788;28;20991;-73
2021/03/28 05:26:33;;;;;;;8.40;3.00;;;7.30;82.00;;;7.16;77.73;99452.25;5025317;28;20636;-73
2021/03/28 05:29:34;;;;;;;8.40;3.70;;;7.40;81.60;;;7.16;77.45;99450.47;5061430;28;20648;-73
2021/03/28 05:32:55;;;;;;;7.17;2.90;;;7.40;80.70;;;7.16;77.74;99450.47;5026556;28;20698;-73
2021/03/28 05:36:19;;;;;;;8.30;3.27;;;7.40;80.80;;;7.13;77.78;99444.56;5022595;28;21189;-73
2021/03/28 05:39:51;;;;;;;6.13;3.10;;;7.40;81.30;;;7.14;77.83;99441.91;4933048;29;20648;-73
2021/03/28 05:42:43;;;;;;;7.00;3.20;;;7.40;81.30;;;7.21;78.53;99443.38;5024351;28;20640;-73
2021/03/28 05:45:48;;;;;;;9.97;3.23;;;7.40;81.20;;;7.25;77.49;99455.38;5023998;28;20632;-73
2021/03/28 05:49:01;;;;;;;9.77;3.50;;;7.50;82.00;;;7.33;78.07;99455.94;5026340;28;20629;-73
2021/03/28 05:52:06;;;;;;;6.87;2.50;;;7.50;80.90;;;7.53;76.50;99459.59;5035180;28;21033;-73
2021/03/28 05:55:26;;;;;;;7.83;3.23;;;7.70;80.90;;;7.70;75.91;99462.44;5015103;28;20733;-73
2021/03/28 05:58:27;;;;;;;6.70;3.07;;;7.80;80.00;;;8.02;76.49;99465.56;5026050;28;20633;-73
2021/03/28 06:01:30;;;;;;;7.63;3.63;;;8.10;80.00;;;8.06;74.70;99467.16;5000295;28;20654;-73
2021/03/28 06:04:54;;;;;;;8.13;3.70;;;8.20;78.90;;;8.04;74.97;99481.97;5025271;28;20989;-73
2021/03/28 06:08:16;;;;;;;7.23;3.20;;;8.20;78.70;;;7.96;75.27;99489.16;4984363;28;20684;-73
2021/03/28 06:11:50;;;;;;;7.60;3.70;;;8.20;78.70;;;7.94;76.85;99481.47;5018284;28;20646;-73
2021/03/28 06:14:45;;;;;;;6.43;3.60;;;8.10;79.50;;;8.23;74.70;99487.38;5021072;28;20636;-73
2021/03/28 06:17:28;;;;;;;8.40;4.67;;;8.30;78.70;;;8.30;73.56;99494.88;5024178;28;21221;-73
2021/03/28 06:20:35;;;;;;;5.33;3.67;;;8.20;77.50;;;8.29;74.95;99493.19;5024393;28;20720;-73
2021/03/28 06:24:25;;;;;;;9.00;3.43;;;8.30;78.50;;;8.69;74.13;99493.34;5024726;28;20629;-73
2021/03/28 06:27:31;;;;;;;9.63;4.30;;;8.60;80.20;;;8.99;73.77;99501.69;5026603;28;20668;-68
2021/03/28 06:30:55;;;;;;;6.13;3.60;;;8.90;78.00;;;9.30;74.65;99494.31;5022175;28;20649;-72
2021/03/28 06:34:26;;;;;;;8.23;4.03;;;9.20;77.70;;;9.93;72.58;99495.06;5022007;28;21254;-72
2021/03/28 06:37:40;;;;;;;7.67;3.10;;;9.70;78.10;;;10.48;70.27;99503.03;5021922;28;20720;-72
2021/03/28 06:40:38;;;;;;;7.50;2.80;;;10.20;74.20;;;11.04;66.74;99505.53;4992122;28;20642;-72
2021/03/28 06:44:20;;;;;;;7.10;2.63;;;10.70;70.50;;;11.61;66.68;99506.19;5019882;28;20649;-72
2021/03/28 06:47:39;;;;;;;4.53;2.83;;;11.30;68.80;;;12.12;64.32;99517.44;4945752;29;21269;-72
2021/03/28 06:51:04;;;;;;;4.73;2.30;;;11.80;65.40;;;12.51;62.18;99529.28;5021158;28;20626;-72
2021/03/28 06:54:22;;;;;;;4.70;3.07;;;12.20;64.00;;;12.79;62.14;99519.88;5017424;28;21216;-72
2021/03/28 06:57:41;;;;;;;5.40;2.57;;;12.50;62.80;;;13.00;60.66;99525.75;5013135;28;20656;-73
2021/03/28 07:01:02;;;;;;;4.97;2.70;;;12.80;60.40;;;13.19;58.59;99535.13;5024229;28;20700;-74
2021/03/28 07:04:17;;;;;;;7.80;3.03;;;13.00;58.60;;;13.37;58.44;99521.81;5058382;28;20683;-73
2021/03/28 07:06:55;;;;;;;5.93;2.23;;;13.20;57.00;;;13.43;57.33;99513.63;5004176;28;20697;-73
2021/03/28 07:10:10;;;;;;;3.97;2.10;;;13.30;56.00;;;13.55;58.52;99515.53;5026289;28;20677;-73
2021/03/28 07:13:31;;;;;;;6.43;2.33;;;13.50;56.20;;;13.50;57.58;99524.59;5023517;28;20651;-73
2021/03/28 07:16:49;;;;;;;6.40;2.57;;;13.50;55.30;;;13.35;57.73;99514.97;4999452;28;20662;-73
2021/03/28 07:20:08;;;;;;;3.77;2.40;;;13.40;54.50;;;13.30;57.48;99524.88;5003512;28;20637;-73
2021/03/28 07:23:20;;;;;;;4.47;2.10;;;13.30;55.50;;;13.23;57.54;99513.91;5017852;28;20662;-74
2021/03/28 07:26:02;;;;;;;5.63;2.37;;;13.30;55.10;;;13.19;57.90;99535.13;5026661;28;20623;-73
2021/03/28 07:29:51;;;;;;;4.40;2.33;;;13.20;54.80;;;13.03;57.88;99542.13;5018180;28;20640;-73
2021/03/28 07:33:15;;;;;;;5.07;2.70;;;13.00;54.40;;;13.17;56.05;99539.59;5007389;28;20623;-73
2021/03/28 07:36:18;;;;;;;7.63;2.60;;;13.10;54.70;;;13.19;58.89;99543.81;5020198;28;20659;-73
2021/03/28 07:39:28;;;;;;;7.53;2.40;;;13.20;55.50;;;13.23;58.86;99541.88;5017007;28;20641;-73
2021/03/28 07:42:49;;;;;;;5.17;3.00;;;13.20;55.20;;;13.40;58.21;99536.53;5020182;28;20639;-73
2021/03/28 07:45:53;;;;;;;4.47;2.33;;;13.30;55.90;;;13.83;58.52;99536.59;4990874;28;20698;-73
2021/03/28 07:49:24;;;;;;;5.07;2.10;;;13.60;56.00;;;14.11;57.88;99534.09;5007775;28;20634;-73
2021/03/28 07:52:31;;;;;;;4.67;2.33;;;13.90;55.40;;;14.17;57.25;99522.28;5021926;28;21205;-73
2021/03/28 07:55:19;;;;;;;6.40;2.13;;;14.00;54.30;;;14.22;58.27;99530.72;5026458;28;20634;-73
2021/03/28 07:58:19;;;;;;;5.23;2.50;;;14.10;55.30;;;14.08;56.33;99526.41;5054248;28;20757;-74
2021/03/28 08:01:30;;;;;;;6.47;2.60;;;14.10;53.50;;;13.97;56.63;99542.72;5022785;28;20670;-70
2021/03/28 08:04:49;;;;;;;4.77;2.17;;;14.00;54.90;;;13.68;57.69;99559.31;5024725;28;20643;-69
2021/03/28 08:07:42;;;;;;;9.73;3.43;;;13.70;53.30;;;13.69;59.30;99568.03;5015702;28;20661;-70
2021/03/28 08:10:58;;;;;;;5.67;2.60;;;13.70;56.00;;;13.80;58.03;99569.09;5025348;28;20632;-69
2021/03/28 08:13:45;;;;;;;7.87;2.87;;;13.70;55.10;;;14.07;59.33;99572.75;5017896;28;20647;-69
2021/03/28 08:16:54;;;;;;;4.93;2.70;;;13.90;56.10;;;14.04;56.83;99574.69;5028829;28;20716;-69
2021/03/28 08:19:54;;;;;;;6.67;2.60;;;14.00;54.20;;;13.86;57.30;99579.25;5019892;28;20983;-70
2021/03/28 08:22:40;;;;;;;3.10;1.90;;;13.90;54.80;;;13.65;56.89;99563.88;5029890;28;20642;-69
2021/03/28 08:25:31;;;;;;;5.93;2.33;;;13.70;53.90;;;13.49;59.04;99578.78;5030600;28;21166;-69
2021/03/28 08:28:31;;;;;;;6.47;2.20;;;13.60;55.30;;;13.61;59.02;99583.34;5030491;28;20654;-69
2021/03/28 08:31:17;;;;;;;7.00;2.60;;;13.60;55.20;;;14.18;57.77;99591.38;5031786;28;20635;-69
2021/03/28 08:34:40;;;;;;;6.63;2.30;;;14.00;55.90;;;14.75;58.25;99599.22;5031480;28;20642;-68
2021/03/28 08:37:40;;;;;;;6.63;2.87;;;14.50;55.50;;;15.13;57.21;99607.25;5031640;28;20644;-68
2021/03/28 08:40:32;;;;;;;24.07;8.00;;;14.80;56.00;;;15.37;59.38;99592.63;5045406;28;20681;-68
2021/03/28 08:43:51;;;;;;;9.13;4.43;;;15.10;56.00;;;15.34;56.90;99592.81;5032610;28;20652;-68
2021/03/28 08:46:58;;;;;;;7.90;4.13;;;15.20;54.00;;;15.47;54.57;99599.00;4969304;28;21055;-68
2021/03/28 08:49:34;;;;;;;5.10;3.17;;;15.30;53.40;;;15.56;54.08;99599.22;4970622;28;20630;-68
2021/03/28 08:52:35;;;;;;;8.50;3.50;;;15.40;52.10;;;15.74;55.12;99611.22;5023557;28;20654;-68
2021/03/28 08:55:29;;;;;;;7.30;3.27;;;15.60;53.00;;;15.91;53.99;99608.31;5029709;28;20647;-67
2021/03/28 08:58:05;;;;;;;7.37;2.87;;;15.80;52.50;;;16.00;55.76;99606.84;5030294;28;20648;-67
2021/03/28 09:00:43;;;;;;;10.00;5.53;;;15.80;52.30;;;16.06;55.54;99600.25;5033412;28;20775;-67
2021/03/28 09:03:40;;;;;;;10.27;5.63;;;15.90;52.40;;;16.12;54.79;99596.38;5032982;28;20628;-67
2021/03/28 09:06:14;;;;;;;9.97;4.77;;;16.00;52.20;;;16.35;56.30;99593.06;5032036;28;20640;-67
2021/03/28 09:08:58;;;;;;;15.67;7.57;;;16.20;53.10;;;16.41;52.65;99592.66;5032475;28;21029;-67
2021/03/28 09:12:00;;;;;;;11.10;6.13;;;16.30;51.00;;;16.41;53.23;99592.66;5032083;28;20702;-67
2021/03/28 09:15:03;;;;;;;15.23;7.90;;;16.30;52.90;;;16.43;54.75;99582.84;5033219;28;20624;-68
2021/03/28 09:17:40;;;;;;;11.57;6.07;;;16.30;51.70;;;16.49;56.76;99591.19;5018676;28;21215;-67
2021/03/28 09:20:27;;;;;;;11.93;7.13;;;16.30;53.20;;;16.52;54.23;99576.03;5032722;28;20669;-67
2021/03/28 09:23:17;;;;;;;8.97;4.70;;;16.30;52.50;;;16.57;55.44;99584.44;5029802;28;21176;-67
2021/03/28 09:25:59;;;;;;;6.27;3.70;;;16.40;52.10;;;16.44;54.41;99579.28;5031579;28;20991;-67
2021/03/28 09:28:43;;;;;;;7.77;3.50;;;16.30;52.40;;;16.48;54.42;99578.09;5032429;28;20621;-67
2021/03/28 09:31:20;;;;;;;5.27;2.80;;;16.20;52.90;;;16.54;54.23;99579.38;5032361;28;21188;-67
2021/03/28 09:34:05;;;;;;;8.00;3.07;;;16.30;50.90;;;16.54;55.68;99582.03;5029650;28;21598;-67
2021/03/28 09:36:49;;;;;;;5.80;2.40;;;16.30;52.20;;;16.37;55.00;99570.09;5030576;28;20645;-67
2021/03/28 09:39:39;;;;;;;4.50;2.90;;;16.20;52.50;;;16.34;53.81;99565.03;5032607;28;20741;-67
2021/03/28 09:42:53;;;;;;;5.50;2.80;;;16.10;51.20;;;16.39;53.35;99568.19;5028709;28;20639;-67
2021/03/28 09:46:07;;;;;;;6.50;2.70;;;16.20;51.40;;;16.72;52.74;99557.03;5032933;28;20609;-67
2021/03/28 09:49:14;;;;;;;7.53;2.60;;;16.50;51.20;;;16.72;53.36;99562.31;5031933;28;20633;-67
2021/03/28 09:52:02;;;;;;;4.40;2.60;;;16.60;51.70;;;16.52;52.92;99557.59;5032441;28;20624;-67
2021/03/28 09:55:20;;;;;;;6.57;2.47;;;16.40;49.70;;;16.67;53.01;99556.53;5031841;28;20621;-67
2021/03/28 09:58:40;;;;;;;4.93;2.30;;;16.50;50.90;;;16.39;51.71;99562.94;5029927;28;21193;-67
2021/03/28 10:02:00;;;;;;;3.17;1.70;;;16.30;49.50;;;16.28;52.12;99554.91;5006090;28;21214;-67
2021/03/28 10:04:57;;;;;;;5.90;2.30;;;16.10;48.60;;;16.23;53.88;99544.69;5004760;28;20675;-67
2021/03/28 10:07:33;;;;;;;2.87;1.90;;;16.00;48.10;;;16.40;51.35;99552.28;5025053;28;20693;-67
2021/03/28 10:10:16;;;;;;;4.93;1.83;;;16.10;48.50;;;16.54;51.44;99547.78;5031981;28;20625;-67
2021/03/28 10:12:52;;;;;;;3.87;2.00;;;16.30;48.90;;;16.61;50.97;99546.41;5026367;28;20661;-67
2021/03/28 10:15:22;;;;;;;5.63;2.40;;;16.40;48.50;;;16.68;52.79;99545.03;5028690;28;21001;-67
2021/03/28 10:18:05;;;;;;;6.33;2.33;;;16.40;49.90;;;16.82;51.47;99549.34;5030828;28;21072;-67
2021/03/28 10:21:01;;;;;;;7.60;3.73;;;16.60;49.50;;;16.91;50.60;99538.97;5027817;28;20683;-67
2021/03/28 10:23:49;;;;;;;6.50;2.80;;;16.70;47.90;;;16.91;50.92;99546.88;5042407;28;20649;-68
2021/03/28 10:27:03;;;;;;;3.87;2.00;;;16.70;48.10;;;16.99;50.65;99545.41;5024987;28;20652;-67
2021/03/28 10:29:56;;;;;;;6.67;3.10;;;16.80;48.00;;;16.95;51.58;99540.47;5029036;28;20633;-67
2021/03/28 10:32:48;;;;;;;5.80;2.93;;;16.80;48.50;;;17.01;49.81;99538.22;5027812;28;20617;-67
2021/03/28 10:35:41;;;;;;;5.20;2.30;;;16.80;46.90;;;17.14;51.23;99538.22;5026965;28;20675;-67
2021/03/28 10:38:54;;;;;;;4.97;2.00;;;17.00;46.60;;;17.10;51.26;99531.47;5030419;28;20746;-67
2021/03/28 10:42:22;;;;;;;4.27;2.10;;;17.00;47.10;;;17.17;49.95;99520.38;5027712;28;20730;-67
2021/03/28 10:45:31;;;;;;;3.63;2.23;;;17.00;46.80;;;17.00;51.34;99514.59;4970739;28;20640;-67
2021/03/28 10:49:09;;;;;;;7.70;2.33;;;16.90;46.50;;;17.14;49.74;99509.22;4970191;28;20620;-67
2021/03/28 10:52:34;;;;;;;3.83;2.17;;;17.00;45.50;;;17.03;48.47;99503.84;5027500;28;20660;-67
2021/03/28 10:55:36;;;;;;;4.77;2.47;;;17.00;45.50;;;16.72;48.57;99506.97;5024888;28;20679;-67
2021/03/28 10:59:20;;;;;;;7.23;2.40;;;16.60;44.20;;;16.94;48.58;99501.03;5026383;28;20653;-67
2021/03/28 11:02:58;;;;;;;3.60;2.50;;;16.80;45.60;;;16.95;47.82;99494.81;5028101;28;21119;-67
2021/03/28 11:06:36;;;;;;;7.23;2.20;;;16.80;44.30;;;16.96;48.36;99480.66;5024568;28;20658;-67
2021/03/28 11:09:45;;;;;;;3.27;1.83;;;16.80;45.70;;;16.92;48.23;99485.31;4969339;28;20722;-67
2021/03/28 11:12:44;;;;;;;8.07;3.27;;;16.80;45.50;;;16.62;46.63;99486.66;4966247;28;20633;-67
2021/03/28 11:15:33;;;;;;;3.20;2.00;;;16.60;43.30;;;16.65;49.41;99492.53;5024462;28;20638;-67
2021/03/28 11:18:41;;;;;;;5.20;2.57;;;16.50;45.20;;;16.84;50.49;99479.75;5031324;28;20684;-67
2021/03/28 11:21:27;;;;;;;6.60;2.10;;;16.60;46.00;;;16.98;49.13;99479.59;4999325;28;20737;-67
2021/03/28 11:24:22;;;;;;;4.40;2.53;;;16.80;44.80;;;16.90;48.28;99473.19;5029695;28;20644;-67
2021/03/28 11:27:41;;;;;;;4.53;2.10;;;16.70;45.50;;;16.94;50.32;99451.78;5029664;28;20661;-67
2021/03/28 11:30:26;;;;;;;5.85;2.60;;;16.80;45.60;;;17.07;50.33;99463.97;5028396;28;20707;-67
2021/03/28 11:33:14;;;;;;;12.90;2.50;;;16.90;45.30;;;16.84;48.50;99458.66;5027009;28;20544;-67
2021/03/28 11:35:46;;;;;;;3.70;2.23;;;16.70;43.90;;;16.77;49.24;99454.78;5031518;28;21209;-67
2021/03/28 11:39:09;;;;;;;3.10;2.20;;;16.60;44.30;;;16.74;48.47;99462.91;5029783;28;20751;-67
2021/03/28 11:42:02;;;;;;;3.50;2.47;;;16.60;45.10;;;16.74;48.00;99452.38;5012828;28;21312;-67
2021/03/28 11:44:38;;;;;;;5.77;2.70;;;16.60;45.10;;;16.89;48.74;99443.38;5030911;28;20617;-67
2021/03/28 11:47:29;;;;;;;4.87;2.23;;;16.70;43.90;;;17.04;47.13;99442.25;5027216;28;20617;-67
2021/03/28 11:50:35;;;;;;;4.20;2.13;;;16.90;44.30;;;17.03;48.36;99437.94;5027214;28;21035;-67
2021/03/28 11:53:13;;;;;;;4.00;2.20;;;16.90;43.50;;;16.91;47.99;99441.44;5027797;28;21234;-67
2021/03/28 11:55:48;;;;;;;5.47;2.00;;;16.80;45.00;;;16.70;46.75;99443.00;5033106;28;20635;-67
2021/03/28 11:58:55;;;;;;;4.63;2.40;;;16.70;43.40;;;16.69;49.16;99436.03;5035087;28;20792;-67
2021/03/28 12:02:03;;;;;;;4.10;2.10;;;16.60;43.60;;;16.89;48.71;99426.72;5033978;28;20622;-67
2021/03/28 12:04:33;;;;;;;4.60;2.40;;;16.70;43.40;;;16.98;49.21;99429.53;5031450;28;21183;-67
2021/03/28 12:07:25;;;;;;;6.37;3.57;;;16.90;43.60;;;16.89;46.48;99421.44;5031969;28;20617;-66
2021/03/28 12:10:15;;;;;;;5.37;2.43;;;16.80;43.20;;;16.86;46.55;99426.94;5032577;28;20634;-66
2021/03/28 12:13:15;;;;;;;4.97;2.43;;;16.80;42.40;;;16.83;48.84;99419.25;5032883;28;20641;-66
2021/03/28 12:16:03;;;;;;;5.97;2.03;;;16.70;44.80;;;16.88;51.76;99419.75;5032626;28;20652;-66
2021/03/28 12:18:41;;;;;;;3.97;2.30;;;16.80;46.20;;;16.96;51.23;99422.66;5033263;28;20994;-66
2021/03/28 12:21:49;;;;;;;4.50;2.07;;;16.80;46.40;;;16.96;49.33;99405.06;5032034;28;20644;-66
2021/03/28 12:24:26;;;;;;;4.57;2.53;;;16.80;45.00;;;16.98;49.88;99411.06;5032035;28;20653;-66
2021/03/28 12:27:25;;;;;;;3.70;2.10;;;16.80;44.60;;;16.92;49.65;99408.03;5029153;28;20628;-66
2021/03/28 12:29:54;;;;;;;9.97;6.47;;;16.70;44.20;;;16.98;48.74;99406.63;5028573;28;20699;-66
2021/03/28 12:32:59;;;;;;;5.90;4.00;;;16.80;45.40;;;17.05;47.30;99413.16;5027051;28;20645;-66
2021/03/28 12:35:58;;;;;;;9.40;2.83;;;16.90;43.60;;;17.13;48.61;99399.41;5021107;28;20658;-66